createdAt,value
2023-05-03T00:02:18.391Z,56.61
2023-05-03T00:05:06.096Z,56.33
2023-05-03T00:07:54.929Z,56.82
2023-05-03T00:10:41.959Z,56.15
2023-05-03T00:13:28.951Z,56.10
2023-05-03T00:16:15.956Z,56.33
2023-05-03T00:19:03.134Z,56.95
2023-05-03T00:21:50.112Z,56.47
2023-05-03T00:24:37.445Z,56.18
2023-05-03T00:27:25.042Z,56.01
2023-05-03T00:30:12.688Z,56.70
2023-05-03T00:33:00.224Z,56.27
2023-05-03T00:35:47.956Z,57.26
2023-05-03T00:38:35.238Z,56.23
2023-05-03T00:41:22.388Z,57.38
2023-05-03T00:44:09.548Z,56.13
2023-05-03T00:46:56.869Z,57.24
2023-05-03T00:49:27.058Z,56.04
2023-05-03T00:51:54.765Z,57.14
2023-05-03T00:54:23.371Z,56.91
2023-05-03T00:56:51.991Z,57.53
2023-05-03T00:59:20.322Z,56.62
2023-05-03T01:01:52.025Z,57.47
2023-05-03T01:04:23.471Z,57.33
2023-05-03T01:07:17.421Z,57.51
2023-05-03T01:10:01.559Z,56.60
2023-05-03T01:12:48.014Z,56.51
2023-05-03T01:15:50.312Z,56.70
2023-05-03T01:18:32.526Z,56.90
2023-05-03T01:21:01.346Z,57.84
2023-05-03T01:23:33.682Z,56.89
2023-05-03T01:26:14.319Z,56.84
2023-05-03T01:28:41.583Z,57.31
2023-05-03T01:31:08.578Z,57.08
2023-05-03T01:33:47.717Z,57.16
2023-05-03T01:36:26.597Z,57.22
2023-05-03T01:38:54.558Z,57.25
2023-05-03T01:41:24.232Z,57.98
2023-05-03T01:43:54.283Z,57.57
2023-05-03T01:46:22.260Z,57.46
2023-05-03T01:48:49.560Z,57.63
2023-05-03T01:51:16.664Z,57.77
2023-05-03T01:53:43.738Z,58.13
2023-05-03T01:56:10.779Z,58.31
2023-05-03T01:58:37.762Z,57.25
2023-05-03T02:01:07.535Z,57.47
2023-05-03T02:03:34.766Z,58.32
2023-05-03T02:06:01.732Z,58.32
2023-05-03T02:08:29.368Z,58.08
2023-05-03T02:10:56.503Z,58.42
2023-05-03T02:13:23.552Z,57.80
2023-05-03T02:15:51.111Z,57.52
2023-05-03T02:18:18.558Z,58.01
2023-05-03T02:20:46.489Z,57.78
2023-05-03T02:23:14.360Z,57.84
2023-05-03T02:25:41.836Z,57.83
2023-05-03T02:28:09.017Z,58.75
2023-05-03T02:30:36.420Z,57.97
2023-05-03T02:33:03.718Z,57.95
2023-05-03T02:35:31.444Z,58.05
2023-05-03T02:37:58.623Z,58.10
2023-05-03T02:40:26.131Z,58.51
2023-05-03T02:42:53.881Z,58.29
2023-05-03T02:45:25.665Z,58.85
2023-05-03T02:47:52.864Z,58.81
2023-05-03T02:50:20.225Z,57.75
2023-05-03T02:52:47.439Z,57.60
2023-05-03T02:55:14.644Z,58.88
2023-05-03T02:57:43.760Z,58.95
2023-05-03T03:00:15.538Z,58.04
2023-05-03T03:02:43.453Z,58.98
2023-05-03T03:05:11.220Z,58.11
2023-05-03T03:07:40.643Z,57.71
2023-05-03T03:10:08.595Z,58.55
2023-05-03T03:12:36.550Z,58.90
2023-05-03T03:15:07.266Z,59.00
2023-05-03T03:17:39.012Z,59.09
2023-05-03T03:20:12.983Z,58.00
2023-05-03T03:22:45.541Z,58.64
2023-05-03T03:25:12.585Z,58.52
2023-05-03T03:27:40.109Z,59.04
2023-05-03T03:30:09.360Z,59.15
2023-05-03T03:32:44.776Z,58.47
2023-05-03T03:35:17.233Z,59.00
2023-05-03T03:37:44.264Z,58.08
2023-05-03T03:40:12.325Z,58.62
2023-05-03T03:42:40.471Z,59.08
2023-05-03T03:45:08.004Z,58.01
2023-05-03T03:47:35.292Z,58.62
2023-05-03T03:50:02.711Z,59.32
2023-05-03T03:52:32.119Z,58.69
2023-05-03T03:54:59.187Z,59.28
2023-05-03T03:57:30.326Z,58.95
2023-05-03T03:59:59.379Z,59.48
2023-05-03T04:02:28.492Z,58.90
2023-05-03T04:04:55.707Z,59.34
2023-05-03T04:07:22.959Z,58.75
2023-05-03T04:09:50.355Z,59.06
2023-05-03T04:12:18.001Z,58.22
2023-05-03T04:14:47.413Z,59.74
2023-05-03T04:17:14.664Z,59.63
2023-05-03T04:19:41.840Z,58.38
2023-05-03T04:22:09.693Z,59.58
2023-05-03T04:24:39.753Z,59.35
2023-05-03T04:27:08.893Z,58.30
2023-05-03T04:29:39.252Z,59.39
2023-05-03T04:32:07.908Z,58.95
2023-05-03T04:34:36.480Z,58.97
2023-05-03T04:37:05.366Z,58.31
2023-05-03T04:39:33.118Z,58.33
2023-05-03T04:42:02.237Z,59.04
2023-05-03T04:44:30.083Z,59.18
2023-05-03T04:46:58.299Z,59.28
2023-05-03T04:49:27.422Z,58.20
2023-05-03T04:51:56.462Z,58.67
2023-05-03T04:54:25.078Z,58.90
2023-05-03T04:56:53.600Z,58.86
2023-05-03T04:59:21.074Z,59.37
2023-05-03T05:01:48.583Z,59.05
2023-05-03T05:04:15.729Z,58.58
2023-05-03T05:06:47.603Z,59.16
2023-05-03T05:09:24.236Z,57.97
2023-05-03T05:11:56.129Z,58.39
2023-05-03T05:14:28.350Z,59.09
2023-05-03T05:16:56.738Z,58.36
2023-05-03T05:19:24.068Z,58.82
2023-05-03T05:21:52.492Z,57.52
2023-05-03T05:24:21.192Z,58.47
2023-05-03T05:26:49.084Z,58.25
2023-05-03T05:29:17.592Z,57.70
2023-05-03T05:31:45.123Z,58.11
2023-05-03T05:34:12.225Z,56.84
2023-05-03T05:36:39.344Z,57.59
2023-05-03T05:39:07.212Z,56.91
2023-05-03T05:41:34.165Z,57.14
2023-05-03T05:44:01.283Z,57.56
2023-05-03T05:46:30.553Z,57.65
2023-05-03T05:48:57.788Z,56.65
2023-05-03T05:51:44.830Z,57.56
2023-05-03T05:54:31.972Z,56.42
2023-05-03T05:57:20.000Z,57.41
2023-05-03T06:00:06.992Z,57.30
2023-05-03T06:03:01.840Z,57.05
2023-05-03T06:05:49.158Z,56.79
2023-05-03T06:08:36.240Z,56.10
2023-05-03T06:11:23.614Z,55.67
2023-05-03T06:14:11.279Z,56.63
2023-05-03T06:17:00.402Z,55.80
2023-05-03T06:19:47.579Z,55.36
2023-05-03T06:22:35.745Z,55.93
2023-05-03T06:25:22.990Z,54.76
2023-05-03T06:28:11.194Z,55.21
2023-05-03T06:30:58.393Z,55.27
2023-05-03T06:33:47.362Z,54.50
2023-05-03T06:36:35.831Z,55.33
2023-05-03T06:39:23.499Z,54.53
2023-05-03T06:42:11.476Z,55.38
2023-05-03T06:45:00.963Z,53.94
2023-05-03T06:47:48.234Z,55.35
2023-05-03T06:50:35.121Z,54.00
2023-05-03T06:53:22.598Z,54.78
2023-05-03T06:56:09.961Z,55.00
2023-05-03T06:58:57.243Z,54.74
2023-05-03T07:01:44.720Z,54.17
2023-05-03T07:04:31.822Z,53.55
2023-05-03T07:07:19.047Z,54.00
2023-05-03T07:10:06.383Z,53.87
2023-05-03T07:12:53.624Z,53.88
2023-05-03T07:15:40.635Z,55.56
2023-05-03T07:18:27.628Z,55.55
2023-05-03T07:21:14.774Z,56.56
2023-05-03T07:24:01.726Z,57.60
2023-05-03T07:26:49.294Z,58.30
2023-05-03T07:29:36.255Z,58.13
2023-05-03T07:32:23.814Z,58.68
2023-05-03T07:35:11.021Z,59.74
2023-05-03T07:37:58.110Z,59.00
2023-05-03T07:40:45.038Z,60.04
2023-05-03T07:43:32.389Z,60.50
2023-05-03T07:46:19.550Z,61.10
2023-05-03T07:49:07.142Z,60.44
2023-05-03T07:51:58.455Z,61.83
2023-05-03T07:54:45.611Z,61.79
2023-05-03T07:57:34.993Z,61.38
2023-05-03T08:00:22.802Z,61.88
2023-05-03T08:03:10.053Z,62.70
2023-05-03T08:05:57.212Z,62.23
2023-05-03T08:08:44.259Z,62.87
2023-05-03T08:11:31.477Z,63.61
2023-05-03T08:14:18.736Z,63.39
2023-05-03T08:17:05.875Z,64.61
2023-05-03T08:19:52.907Z,63.70
2023-05-03T08:22:40.039Z,64.31
2023-05-03T08:25:27.729Z,65.26
2023-05-03T08:28:14.769Z,64.31
2023-05-03T08:31:02.164Z,65.41
2023-05-03T08:33:49.248Z,65.59
2023-05-03T08:36:36.582Z,64.45
2023-05-03T08:39:27.268Z,65.41
2023-05-03T08:42:14.483Z,65.51
2023-05-03T08:45:08.582Z,65.90
2023-05-03T08:47:55.758Z,65.61
2023-05-03T08:50:44.450Z,65.45
2023-05-03T08:53:31.876Z,66.33
2023-05-03T08:56:18.749Z,66.60
2023-05-03T08:59:06.090Z,65.96
2023-05-03T09:01:57.509Z,66.01
2023-05-03T09:04:53.435Z,65.67
2023-05-03T09:07:40.626Z,65.81
2023-05-03T09:10:43.366Z,65.28
2023-05-03T09:13:31.167Z,65.98
2023-05-03T09:16:18.622Z,65.61
2023-05-03T09:19:16.970Z,65.17
2023-05-03T09:22:06.098Z,65.63
2023-05-03T09:24:53.137Z,65.29
2023-05-03T09:27:40.738Z,64.91
2023-05-03T09:30:40.072Z,64.57
2023-05-03T09:33:28.664Z,65.39
2023-05-03T09:36:20.380Z,65.18
2023-05-03T09:39:07.465Z,64.81
2023-05-03T09:41:54.461Z,64.14
2023-05-03T09:45:00.798Z,64.50
2023-05-03T09:47:48.047Z,63.52
2023-05-03T09:50:35.171Z,63.38
2023-05-03T09:53:27.751Z,64.77
2023-05-03T09:56:14.953Z,64.12
2023-05-03T09:59:03.105Z,63.60
2023-05-03T10:01:50.270Z,62.61
2023-05-03T10:04:40.327Z,62.65
2023-05-03T10:07:32.317Z,63.52
2023-05-03T10:10:19.509Z,63.15
2023-05-03T10:13:10.293Z,62.12
2023-05-03T10:16:01.843Z,62.75
2023-05-03T10:18:52.189Z,61.41
2023-05-03T10:21:49.749Z,61.06
2023-05-03T10:24:37.395Z,61.20
2023-05-03T10:27:28.200Z,60.82
2023-05-03T10:30:15.369Z,61.47
2023-05-03T10:33:02.626Z,59.81
2023-05-03T10:35:49.873Z,59.63
2023-05-03T10:38:40.522Z,60.25
2023-05-03T10:41:27.718Z,60.33
2023-05-03T10:44:14.871Z,60.00
2023-05-03T10:47:03.919Z,59.76
2023-05-03T10:49:50.965Z,58.81
2023-05-03T10:53:05.965Z,58.63
2023-05-03T10:55:54.055Z,58.38
2023-05-03T10:58:41.229Z,59.21
2023-05-03T11:01:33.522Z,58.49
2023-05-03T11:04:30.287Z,57.67
2023-05-03T11:07:18.598Z,57.75
2023-05-03T11:10:05.827Z,57.45
2023-05-03T11:12:52.910Z,56.62
2023-05-03T11:15:40.153Z,57.37
2023-05-03T11:18:28.725Z,56.51
2023-05-03T11:21:16.013Z,56.13
2023-05-03T11:24:03.986Z,56.77
2023-05-03T11:26:57.378Z,55.88
2023-05-03T11:29:45.504Z,55.84
2023-05-03T11:32:32.896Z,56.12
2023-05-03T11:35:21.243Z,55.79
2023-05-03T11:38:08.213Z,55.46
2023-05-03T11:40:55.597Z,55.43
2023-05-03T11:43:42.656Z,54.25
2023-05-03T11:46:30.274Z,54.36
2023-05-03T11:49:17.414Z,54.31
2023-05-03T11:52:04.790Z,53.73
2023-05-03T11:54:52.071Z,53.16
2023-05-03T11:57:39.549Z,54.12
2023-05-03T12:00:34.923Z,53.89
2023-05-03T12:03:23.249Z,52.75
2023-05-03T12:06:16.660Z,52.50
2023-05-03T12:09:04.475Z,52.12
2023-05-03T12:12:02.660Z,52.31
2023-05-03T12:15:22.027Z,51.56
2023-05-03T12:18:18.632Z,51.28
2023-05-03T12:24:06.130Z,50.84
2023-05-03T12:26:53.347Z,50.62
2023-05-03T12:29:41.734Z,50.53
2023-05-03T12:32:29.129Z,49.65
2023-05-03T12:35:19.433Z,49.94
2023-05-03T12:38:09.875Z,48.56
2023-05-03T12:40:58.236Z,48.87
2023-05-03T12:43:45.988Z,48.10
2023-05-03T12:46:35.171Z,47.77
2023-05-03T12:49:23.391Z,47.59
2023-05-03T12:52:36.393Z,47.21
2023-05-03T12:55:19.116Z,47.29
2023-05-03T12:58:39.498Z,46.57
2023-05-03T13:06:58.927Z,45.55
2023-05-03T13:12:37.806Z,45.40
2023-05-03T13:15:25.438Z,44.71
2023-05-03T13:18:12.599Z,44.47
2023-05-03T13:20:59.600Z,44.58
2023-05-03T13:23:48.017Z,44.60
2023-05-03T13:26:35.629Z,44.59
2023-05-03T13:29:23.364Z,44.57
2023-05-03T13:32:10.588Z,44.23
2023-05-03T13:34:57.751Z,44.41
2023-05-03T13:37:44.748Z,44.51
2023-05-03T13:40:32.200Z,44.19
2023-05-03T13:43:19.220Z,43.47
2023-05-03T13:46:06.301Z,43.40
2023-05-03T13:48:53.524Z,43.69
2023-05-03T13:51:40.545Z,43.38
2023-05-03T13:54:29.518Z,43.89
2023-05-03T13:57:17.333Z,43.82
2023-05-03T14:00:04.782Z,42.95
2023-05-03T14:02:54.218Z,42.49
2023-05-03T14:05:41.451Z,42.91
2023-05-03T14:08:28.522Z,42.76
2023-05-03T14:11:15.712Z,42.83
2023-05-03T14:14:03.002Z,43.37
2023-05-03T14:16:50.660Z,43.04
2023-05-03T14:19:37.984Z,43.10
2023-05-03T14:22:25.462Z,42.01
2023-05-03T14:25:12.428Z,43.23
2023-05-03T14:27:59.863Z,42.58
2023-05-03T14:30:46.877Z,41.68
2023-05-03T14:33:34.310Z,42.50
2023-05-03T14:36:21.571Z,41.42
2023-05-03T14:39:08.608Z,41.71
2023-05-03T14:41:56.557Z,41.65
2023-05-03T14:44:43.667Z,41.08
2023-05-03T14:47:31.284Z,41.60
2023-05-03T14:50:18.559Z,41.53
2023-05-03T14:53:05.587Z,40.27
2023-05-03T14:55:52.520Z,40.22
2023-05-03T14:58:39.495Z,40.08
2023-05-03T15:01:26.896Z,39.94
2023-05-03T15:04:14.177Z,40.10
2023-05-03T15:07:01.205Z,39.40
2023-05-03T15:09:48.649Z,39.42
2023-05-03T15:12:35.968Z,38.79
2023-05-03T15:15:23.056Z,38.65
2023-05-03T15:18:10.256Z,38.48
2023-05-03T15:20:57.342Z,38.71
2023-05-03T15:23:44.486Z,37.96
2023-05-03T15:26:32.180Z,37.99
2023-05-03T15:29:19.158Z,37.78
2023-05-03T15:32:06.336Z,37.08
2023-05-03T15:34:53.461Z,37.43
2023-05-03T15:37:40.780Z,37.41
2023-05-03T15:40:30.045Z,36.75
2023-05-03T15:43:17.457Z,37.26
2023-05-03T15:46:04.578Z,36.82
2023-05-03T15:48:51.626Z,36.46
2023-05-03T15:51:38.704Z,36.78
2023-05-03T15:54:25.771Z,36.82
2023-05-03T15:57:13.000Z,36.73
2023-05-03T16:00:00.180Z,36.81
2023-05-03T16:02:47.435Z,36.98
2023-05-03T16:05:34.482Z,36.42
2023-05-03T16:08:21.576Z,36.91
2023-05-03T16:11:08.591Z,36.29
2023-05-03T16:13:55.875Z,36.10
2023-05-03T16:16:42.925Z,35.60
2023-05-03T16:19:29.982Z,35.38
2023-05-03T16:22:17.018Z,35.63
2023-05-03T16:25:03.989Z,35.47
2023-05-03T16:27:50.911Z,34.92
2023-05-03T16:30:38.005Z,35.43
2023-05-03T16:33:25.003Z,35.22
2023-05-03T16:36:12.238Z,35.56
2023-05-03T16:39:00.241Z,35.66
2023-05-03T16:41:47.255Z,35.48
2023-05-03T16:44:34.237Z,35.48
2023-05-03T16:47:21.411Z,36.24
2023-05-03T16:50:08.594Z,35.73
2023-05-03T16:53:03.210Z,35.51
2023-05-03T16:55:50.299Z,35.35
2023-05-03T16:58:37.796Z,35.28
2023-05-03T17:01:25.394Z,35.25
2023-05-03T17:04:12.859Z,35.33
2023-05-03T17:07:00.294Z,35.05
2023-05-03T17:09:47.501Z,34.88
2023-05-03T17:12:35.251Z,34.48
2023-05-03T17:15:22.574Z,34.37
2023-05-03T17:18:09.644Z,34.20
2023-05-03T17:20:37.245Z,34.30
2023-05-03T17:23:04.391Z,34.08
2023-05-03T17:25:31.583Z,33.81
2023-05-03T17:27:58.701Z,33.69
2023-05-03T17:30:25.998Z,34.06
2023-05-03T17:32:53.172Z,34.14
2023-05-03T17:35:20.221Z,34.11
2023-05-03T17:37:47.392Z,34.42
2023-05-03T17:40:14.485Z,34.02
2023-05-03T17:42:41.999Z,34.13
2023-05-03T17:45:09.900Z,33.83
2023-05-03T17:47:37.129Z,33.86
2023-05-03T17:50:04.782Z,34.04
2023-05-03T17:52:32.026Z,34.28
2023-05-03T17:54:59.193Z,34.18
2023-05-03T17:57:26.606Z,34.15
2023-05-03T17:59:53.661Z,34.33
2023-05-03T18:02:21.692Z,33.87
2023-05-03T18:04:48.929Z,34.45
2023-05-03T18:07:16.182Z,34.74
2023-05-03T18:09:43.643Z,34.86
2023-05-03T18:12:10.781Z,33.82
2023-05-03T18:14:38.582Z,34.17
2023-05-03T18:17:07.543Z,34.66
2023-05-03T18:19:34.707Z,34.90
2023-05-03T18:22:02.208Z,35.12
2023-05-03T18:24:29.350Z,34.15
2023-05-03T18:26:56.502Z,34.34
2023-05-03T18:29:23.695Z,35.41
2023-05-03T18:31:52.475Z,34.85
2023-05-03T18:34:19.503Z,35.67
2023-05-03T18:36:46.737Z,35.12
2023-05-03T18:39:13.743Z,34.67
2023-05-03T18:41:40.773Z,35.80
2023-05-03T18:44:08.342Z,34.86
2023-05-03T18:46:38.795Z,34.97
2023-05-03T18:49:06.248Z,34.98
2023-05-03T18:51:33.255Z,36.37
2023-05-03T18:54:00.191Z,35.21
2023-05-03T18:56:30.268Z,35.43
2023-05-03T18:58:57.575Z,36.41
2023-05-03T19:01:27.581Z,36.12
2023-05-03T19:03:55.173Z,36.03
2023-05-03T19:06:22.419Z,36.35
2023-05-03T19:08:49.880Z,37.13
2023-05-03T19:11:17.316Z,37.07
2023-05-03T19:13:46.266Z,37.00
2023-05-03T19:16:15.698Z,37.04
2023-05-03T19:18:44.412Z,37.35
2023-05-03T19:21:17.960Z,37.31
2023-05-03T19:23:45.142Z,38.49
2023-05-03T19:26:12.487Z,38.09
2023-05-03T19:29:00.015Z,38.42
2023-05-03T19:31:47.179Z,37.65
2023-05-03T19:34:34.204Z,38.48
2023-05-03T19:37:22.343Z,38.56
2023-05-03T19:40:09.392Z,39.24
2023-05-03T19:42:56.972Z,38.71
2023-05-03T19:45:44.180Z,38.18
2023-05-03T19:48:31.830Z,38.08
2023-05-03T19:51:19.311Z,38.91
2023-05-03T19:54:06.416Z,38.86
2023-05-03T19:56:53.407Z,38.10
2023-05-03T19:59:40.759Z,38.37
2023-05-03T20:02:27.910Z,38.39
2023-05-03T20:05:15.232Z,38.07
2023-05-03T20:08:02.202Z,38.97
2023-05-03T20:10:49.438Z,38.50
2023-05-03T20:13:36.430Z,38.44
2023-05-03T20:16:26.215Z,38.68
2023-05-03T20:19:13.503Z,39.00
2023-05-03T20:22:00.665Z,38.12
2023-05-03T20:24:48.170Z,39.32
2023-05-03T20:27:36.026Z,38.35
2023-05-03T20:30:23.220Z,38.54
2023-05-03T20:33:10.456Z,38.91
2023-05-03T20:35:57.710Z,38.74
2023-05-03T20:38:44.739Z,38.86
2023-05-03T20:41:31.831Z,40.11
2023-05-03T20:44:18.821Z,39.59
2023-05-03T20:47:05.925Z,40.32
2023-05-03T20:49:52.852Z,40.51
2023-05-03T20:52:40.001Z,39.51
2023-05-03T20:55:27.446Z,40.50
2023-05-03T20:58:14.548Z,40.46
2023-05-03T21:01:01.541Z,40.40
2023-05-03T21:03:48.895Z,40.70
2023-05-03T21:06:35.897Z,40.54
2023-05-03T21:09:23.129Z,39.90
2023-05-03T21:12:10.212Z,40.35
2023-05-03T21:14:57.187Z,40.42
2023-05-03T21:17:44.278Z,41.30
2023-05-03T21:20:31.883Z,41.67
2023-05-03T21:23:18.856Z,40.65
2023-05-03T21:26:05.961Z,40.37
2023-05-03T21:28:53.015Z,40.88
2023-05-03T21:31:40.202Z,41.06
2023-05-03T21:34:27.215Z,41.45
2023-05-03T21:37:14.533Z,41.67
2023-05-03T21:40:02.874Z,41.42
2023-05-03T21:42:50.532Z,41.95
2023-05-03T21:45:37.623Z,41.76
2023-05-03T21:48:25.167Z,41.76
2023-05-03T21:51:12.225Z,42.44
2023-05-03T21:53:59.264Z,41.66
2023-05-03T21:56:46.618Z,42.15
2023-05-03T21:59:33.850Z,42.32
2023-05-03T22:02:21.051Z,41.98
2023-05-03T22:05:08.858Z,41.90
2023-05-03T22:07:55.961Z,42.83
2023-05-03T22:10:43.035Z,42.74
2023-05-03T22:13:30.042Z,42.99
2023-05-03T22:16:23.764Z,42.39
2023-05-03T22:19:10.818Z,43.11
2023-05-03T22:21:58.117Z,43.11
2023-05-03T22:24:45.250Z,43.21
2023-05-03T22:27:32.282Z,43.16
2023-05-03T22:30:19.282Z,43.44
2023-05-03T22:33:06.385Z,42.88
2023-05-03T22:35:53.354Z,43.14
2023-05-03T22:38:42.727Z,43.96
2023-05-03T22:41:30.305Z,43.41
2023-05-03T22:44:17.295Z,43.97
2023-05-03T22:47:04.326Z,43.16
2023-05-03T22:49:51.464Z,43.81
2023-05-03T22:52:38.423Z,44.26
2023-05-03T22:55:26.040Z,44.00
2023-05-03T22:58:13.061Z,43.94
2023-05-03T23:01:00.348Z,43.95
2023-05-03T23:03:47.447Z,43.81
2023-05-03T23:06:34.959Z,44.02
2023-05-03T23:09:21.958Z,44.01
2023-05-03T23:12:09.241Z,44.14
2023-05-03T23:14:56.243Z,44.09
2023-05-03T23:17:43.547Z,44.32
2023-05-03T23:20:31.430Z,44.44
2023-05-03T23:23:18.562Z,44.24
2023-05-03T23:26:05.654Z,44.48
2023-05-03T23:28:52.992Z,44.42
2023-05-03T23:31:40.368Z,44.38
2023-05-03T23:34:28.026Z,44.57
2023-05-03T23:37:15.379Z,44.50
2023-05-03T23:40:03.824Z,44.56
2023-05-03T23:42:51.361Z,44.72
2023-05-03T23:45:38.387Z,44.63
2023-05-03T23:48:25.725Z,44.71
2023-05-03T23:51:12.641Z,44.68
2023-05-03T23:53:59.934Z,44.96
2023-05-03T23:56:46.882Z,44.90
2023-05-03T23:59:33.998Z,45.15
